Time;durP1;ratioP1;P1;durP2;ratioP2;P2;SDS_P1;SDS_P2;PMS_P1;PMS_P2;Temp;Humidity;BMP_temperature;BMP_pressure;BME280_temperature;BME280_humidity;BME280_pressure;Samples;Min_cycle;Max_cycle;Signal;HPM_P1;HPM_P2
2022/07/31 00:01:46;;;;;;;5.00;2.05;;;21.30;58.10;;;;;;5073010;28;19955;-47
2022/07/31 00:04:12;;;;;;;4.35;2.28;;;21.30;58.20;;;;;;5072692;28;20056;-47
2022/07/31 00:06:40;;;;;;;2.30;1.83;;;21.30;58.10;;;;;;5072888;28;20025;-48
2022/07/31 00:09:05;;;;;;;3.08;1.90;;;21.30;58.40;;;;;;5072687;28;20023;-47
2022/07/31 00:11:31;;;;;;;5.97;1.83;;;21.20;58.50;;;;;;5073138;28;20037;-48
2022/07/31 00:13:56;;;;;;;3.70;1.80;;;21.30;58.50;;;;;;5073115;28;20029;-45
2022/07/31 00:16:22;;;;;;;7.03;3.53;;;21.20;58.70;;;;;;5072700;28;20040;-46
2022/07/31 00:18:48;;;;;;;3.33;1.85;;;21.10;59.10;;;;;;5072925;28;20037;-48
2022/07/31 00:21:14;;;;;;;5.68;2.30;;;21.00;59.10;;;;;;5072801;28;20032;-46
2022/07/31 00:23:39;;;;;;;2.22;1.90;;;21.00;58.90;;;;;;5072515;28;20017;-47
2022/07/31 00:26:06;;;;;;;4.45;2.03;;;21.10;59.00;;;;;;5071189;28;20025;-45
2022/07/31 00:28:32;;;;;;;3.25;1.67;;;21.00;59.00;;;;;;5074867;28;20032;-46
2022/07/31 00:30:57;;;;;;;4.28;1.98;;;21.00;58.90;;;;;;5076333;28;20020;-47
2022/07/31 00:33:23;;;;;;;4.00;2.20;;;20.90;59.20;;;;;;5076262;28;20028;-46
2022/07/31 00:35:49;;;;;;;2.05;1.33;;;20.80;59.30;;;;;;5076488;28;20054;-46
2022/07/31 00:38:15;;;;;;;6.82;1.90;;;20.80;59.90;;;;;;5075241;28;20032;-48
2022/07/31 00:40:50;;;;;;;2.88;1.42;;;20.70;60.00;;;;;;5076311;28;20056;-46
2022/07/31 00:43:19;;;;;;;3.63;2.03;;;20.60;60.20;;;;;;5077126;28;20020;-48
2022/07/31 00:45:46;;;;;;;3.50;2.20;;;20.50;60.40;;;;;;5076458;28;20123;-47
2022/07/31 00:48:11;;;;;;;3.35;2.13;;;20.40;60.60;;;;;;5076644;28;20554;-47
2022/07/31 00:50:37;;;;;;;4.18;1.95;;;20.50;60.70;;;;;;5076536;28;20085;-45
2022/07/31 00:53:03;;;;;;;2.47;2.15;;;20.40;60.80;;;;;;5076510;28;20071;-47
2022/07/31 00:55:30;;;;;;;4.43;1.60;;;20.30;60.90;;;;;;5076657;28;20028;-46
2022/07/31 00:57:56;;;;;;;4.45;1.98;;;20.30;61.00;;;;;;5077251;28;20036;-47
2022/07/31 01:00:22;;;;;;;2.53;2.10;;;20.30;61.40;;;;;;5076759;28;20037;-46
2022/07/31 01:02:48;;;;;;;3.72;1.92;;;20.20;61.70;;;;;;5076440;28;20029;-47
2022/07/31 01:05:17;;;;;;;4.63;2.47;;;20.20;61.90;;;;;;5076334;28;20021;-48
2022/07/31 01:07:47;;;;;;;4.68;2.35;;;20.20;61.90;;;;;;5076314;28;20067;-46
2022/07/31 01:10:21;;;;;;;3.13;1.77;;;20.10;61.90;;;;;;5076150;28;20135;-46
2022/07/31 01:12:53;;;;;;;5.85;2.30;;;20.10;62.10;;;;;;5076077;28;20117;-46
2022/07/31 01:15:20;;;;;;;5.00;3.22;;;20.00;62.10;;;;;;5074336;28;20128;-47
2022/07/31 01:17:48;;;;;;;6.75;2.80;;;20.10;62.10;;;;;;5074402;28;20520;-47
2022/07/31 01:20:14;;;;;;;3.65;3.03;;;20.00;62.40;;;;;;5074023;28;20028;-48
2022/07/31 01:23:02;;;;;;;4.05;2.67;;;20.00;62.40;;;;;;5075201;28;20024;-47
2022/07/31 01:26:08;;;;;;;2.95;2.10;;;20.00;62.40;;;;;;5075285;28;20031;-46
2022/07/31 01:28:52;;;;;;;5.60;2.40;;;19.80;62.70;;;;;;5075461;28;20468;-45
2022/07/31 01:31:36;;;;;;;8.80;2.40;;;19.80;62.90;;;;;;5074535;28;20020;-47
2022/07/31 01:34:24;;;;;;;3.10;2.17;;;19.80;62.80;;;;;;5073764;28;20032;-46
2022/07/31 01:37:20;;;;;;;2.45;2.25;;;19.80;63.20;;;;;;5075551;28;20494;-45
2022/07/31 01:40:05;;;;;;;4.05;2.10;;;19.70;63.50;;;;;;5074976;28;20066;-46
2022/07/31 01:42:33;;;;;;;3.28;2.10;;;19.80;63.30;;;;;;5075736;28;20445;-45
2022/07/31 01:45:01;;;;;;;6.97;2.38;;;19.80;63.40;;;;;;5075051;28;20027;-46
2022/07/31 01:47:29;;;;;;;6.38;2.38;;;19.70;63.20;;;;;;5074824;28;20017;-46
2022/07/31 01:49:57;;;;;;;4.93;3.15;;;19.70;63.60;;;;;;5074603;28;20158;-46
2022/07/31 01:52:26;;;;;;;3.70;1.85;;;19.60;63.70;;;;;;5074904;28;20507;-46
2022/07/31 01:54:54;;;;;;;3.30;2.17;;;19.60;63.80;;;;;;5074658;28;20111;-47
2022/07/31 01:57:22;;;;;;;4.00;2.45;;;19.60;63.90;;;;;;5074540;28;20020;-45
2022/07/31 01:59:50;;;;;;;3.80;2.58;;;19.60;63.90;;;;;;5074466;28;20024;-49
2022/07/31 02:02:18;;;;;;;4.20;2.15;;;19.60;64.00;;;;;;5074703;28;20055;-47
2022/07/31 02:04:45;;;;;;;3.05;2.20;;;19.50;64.30;;;;;;5074506;28;20028;-46
2022/07/31 02:07:13;;;;;;;7.63;2.42;;;19.50;64.30;;;;;;5074580;28;20020;-47
2022/07/31 02:09:42;;;;;;;4.70;2.38;;;19.40;64.40;;;;;;5074631;28;20025;-45
2022/07/31 02:12:10;;;;;;;5.03;2.13;;;19.40;64.60;;;;;;5072957;28;20035;-46
2022/07/31 02:14:39;;;;;;;4.65;2.20;;;19.40;64.70;;;;;;5072891;28;20024;-46
2022/07/31 02:17:06;;;;;;;2.95;2.55;;;19.30;64.90;;;;;;5072910;28;20020;-46
2022/07/31 02:19:35;;;;;;;6.40;2.05;;;19.30;65.10;;;;;;5072767;28;20024;-46
2022/07/31 02:22:01;;;;;;;3.28;2.75;;;19.30;65.30;;;;;;5074029;28;20384;-46
2022/07/31 02:24:26;;;;;;;7.07;1.83;;;19.20;65.50;;;;;;5074240;28;20178;-46
2022/07/31 02:26:53;;;;;;;2.42;1.85;;;19.20;65.50;;;;;;5074260;28;20528;-46
2022/07/31 02:29:20;;;;;;;4.55;2.20;;;19.20;65.60;;;;;;5074124;28;20065;-45
2022/07/31 02:31:47;;;;;;;2.85;2.50;;;19.20;65.60;;;;;;5074294;28;20142;-47
2022/07/31 02:34:16;;;;;;;2.90;2.58;;;19.30;65.60;;;;;;5073771;28;20116;-46
2022/07/31 02:36:43;;;;;;;2.97;2.50;;;19.30;65.40;;;;;;5072620;28;20040;-46
2022/07/31 02:39:10;;;;;;;3.47;2.60;;;19.30;64.90;;;;;;5073839;28;20025;-45
2022/07/31 02:41:36;;;;;;;3.03;2.15;;;19.30;65.10;;;;;;5073646;28;20416;-45
2022/07/31 02:44:02;;;;;;;3.58;2.40;;;19.30;65.30;;;;;;5073711;28;20027;-46
2022/07/31 02:46:28;;;;;;;2.92;2.00;;;19.20;65.50;;;;;;5073687;28;20028;-46
2022/07/31 02:48:55;;;;;;;5.90;2.33;;;19.20;65.60;;;;;;5073762;28;20032;-45
2022/07/31 02:51:22;;;;;;;2.60;2.40;;;19.10;65.90;;;;;;5073413;28;20021;-46
2022/07/31 02:53:48;;;;;;;7.60;3.17;;;19.10;66.10;;;;;;5073793;28;20031;-46
2022/07/31 02:56:15;;;;;;;4.88;2.70;;;19.20;65.60;;;;;;5073743;28;20055;-46
2022/07/31 02:58:41;;;;;;;4.40;2.92;;;19.10;65.90;;;;;;5073384;28;20078;-46
2022/07/31 03:01:08;;;;;;;6.30;3.50;;;19.10;66.30;;;;;;5073780;28;20029;-45
2022/07/31 03:03:34;;;;;;;2.47;2.28;;;19.00;66.10;;;;;;5073366;28;20032;-47
2022/07/31 03:05:59;;;;;;;3.65;2.75;;;18.90;66.50;;;;;;5073288;28;20078;-45
2022/07/31 03:08:26;;;;;;;3.38;2.53;;;18.80;66.60;;;;;;5072134;28;20021;-46
2022/07/31 03:10:52;;;;;;;5.10;3.70;;;18.80;66.80;;;;;;5071967;28;20036;-46
2022/07/31 03:13:19;;;;;;;9.07;3.42;;;18.80;66.90;;;;;;5073430;28;20032;-46
2022/07/31 03:15:47;;;;;;;9.50;4.18;;;18.80;67.00;;;;;;5073369;28;20178;-45
2022/07/31 03:18:15;;;;;;;6.40;3.33;;;18.80;67.00;;;;;;5055282;28;20024;-46
2022/07/31 03:20:42;;;;;;;6.28;2.88;;;18.80;66.90;;;;;;5071808;28;20029;-45
2022/07/31 03:23:11;;;;;;;8.35;2.40;;;18.90;66.70;;;;;;5073517;28;20021;-45
2022/07/31 03:25:36;;;;;;;2.88;2.10;;;18.90;66.70;;;;;;5073567;28;20021;-45
2022/07/31 03:28:02;;;;;;;4.75;3.00;;;19.00;66.50;;;;;;5073332;28;20143;-47
2022/07/31 03:30:28;;;;;;;2.85;2.20;;;19.00;66.50;;;;;;5073167;28;20023;-48
2022/07/31 03:32:55;;;;;;;3.38;2.17;;;19.10;66.40;;;;;;5073130;28;20523;-47
2022/07/31 03:35:22;;;;;;;3.40;2.67;;;19.00;66.40;;;;;;5073887;28;20024;-45
2022/07/31 19:42:17;;;;;;;11.90;8.27;;;19.70;92.90;;;;;;5091164;27;20389;-38
2022/07/31 19:44:43;;;;;;;12.38;7.63;;;19.70;92.80;;;;;;5090761;28;20088;-38
2022/07/31 19:47:08;;;;;;;16.60;8.40;;;19.80;92.80;;;;;;5089413;28;20028;-38
2022/07/31 19:49:34;;;;;;;12.27;8.15;;;19.80;92.70;;;;;;5090703;28;20025;-38
2022/07/31 19:51:59;;;;;;;14.75;8.65;;;19.80;92.40;;;;;;5090699;28;20027;-38
2022/07/31 19:54:25;;;;;;;13.00;8.45;;;19.90;92.20;;;;;;5089420;28;20024;-38
2022/07/31 19:56:51;;;;;;;14.80;8.65;;;20.00;92.10;;;;;;5091213;28;20028;-39
2022/07/31 19:59:17;;;;;;;11.73;8.18;;;20.00;91.90;;;;;;5090737;28;20047;-38
2022/07/31 20:01:43;;;;;;;12.57;8.10;;;20.00;91.80;;;;;;5089718;28;20024;-39
2022/07/31 20:04:09;;;;;;;17.33;8.65;;;20.00;91.70;;;;;;5091476;28;20095;-39
2022/07/31 20:06:37;;;;;;;18.00;8.57;;;20.00;91.60;;;;;;5091422;28;20032;-47
2022/07/31 20:09:04;;;;;;;12.88;8.50;;;20.00;91.60;;;;;;5091260;28;20031;-46
2022/07/31 20:11:30;;;;;;;11.93;8.50;;;20.00;91.60;;;;;;5089329;28;20471;-47
2022/07/31 20:13:56;;;;;;;16.92;8.85;;;20.10;91.60;;;;;;5091083;28;20031;-47
2022/07/31 20:16:21;;;;;;;13.73;9.32;;;20.00;91.60;;;;;;5090412;28;20020;-49
2022/07/31 20:18:47;;;;;;;13.68;8.77;;;20.10;91.60;;;;;;5090686;28;20031;-47
2022/07/31 20:21:13;;;;;;;13.43;8.10;;;20.10;91.40;;;;;;5090861;28;20029;-46
2022/07/31 20:23:40;;;;;;;15.65;8.82;;;20.10;91.50;;;;;;5090277;28;20024;-47
2022/07/31 20:26:11;;;;;;;13.43;8.02;;;20.10;91.60;;;;;;5089207;28;20028;-47
2022/07/31 20:28:39;;;;;;;20.88;10.77;;;20.10;91.50;;;;;;5090096;28;20024;-47
2022/07/31 20:31:05;;;;;;;14.05;7.97;;;20.10;91.40;;;;;;5091800;28;20024;-46
2022/07/31 20:33:31;;;;;;;11.98;8.57;;;20.10;91.50;;;;;;5089730;28;20025;-51
2022/07/31 20:35:57;;;;;;;13.35;8.75;;;20.10;91.40;;;;;;5089899;28;20082;-46
2022/07/31 20:38:23;;;;;;;11.95;7.57;;;20.10;91.50;;;;;;5089912;28;20023;-46
2022/07/31 20:40:52;;;;;;;18.88;9.50;;;20.10;91.30;;;;;;5089396;28;20185;-47
2022/07/31 20:43:17;;;;;;;16.25;9.43;;;20.00;91.50;;;;;;5089781;28;20013;-46
2022/07/31 20:45:45;;;;;;;12.35;9.20;;;20.00;91.60;;;;;;5089964;28;20146;-50
2022/07/31 20:48:11;;;;;;;17.95;8.63;;;20.00;91.50;;;;;;5089440;28;20487;-47
2022/07/31 20:50:37;;;;;;;18.77;8.73;;;20.00;91.60;;;;;;5089196;28;20095;-46
2022/07/31 20:53:04;;;;;;;12.25;8.73;;;20.00;91.50;;;;;;5079202;28;20046;-47
2022/07/31 20:55:31;;;;;;;15.00;8.90;;;20.10;91.40;;;;;;5075598;28;20052;-47
2022/07/31 20:58:00;;;;;;;15.65;9.57;;;20.00;91.30;;;;;;5075581;28;20105;-45
2022/07/31 21:00:27;;;;;;;17.65;9.20;;;20.00;91.20;;;;;;5075474;28;20021;-47
2022/07/31 21:02:52;;;;;;;12.98;9.02;;;20.00;91.40;;;;;;5076271;28;20465;-47
2022/07/31 21:05:19;;;;;;;19.15;10.30;;;20.00;91.40;;;;;;5075622;28;20029;-46
2022/07/31 21:07:46;;;;;;;15.82;9.93;;;20.00;91.30;;;;;;5075435;28;20024;-46
2022/07/31 21:10:11;;;;;;;15.73;9.32;;;20.00;91.30;;;;;;5075716;28;20025;-46
2022/07/31 21:12:37;;;;;;;20.77;9.70;;;20.00;91.30;;;;;;5074004;28;20048;-46
2022/07/31 21:15:04;;;;;;;14.98;8.77;;;20.00;91.40;;;;;;5075351;28;20055;-50
2022/07/31 21:17:29;;;;;;;16.40;9.95;;;20.10;91.20;;;;;;5074668;28;20113;-46
2022/07/31 21:19:55;;;;;;;15.32;8.57;;;20.00;91.30;;;;;;5075159;28;20427;-47
2022/07/31 21:22:21;;;;;;;15.10;9.75;;;20.00;91.20;;;;;;5075223;28;20032;-45
2022/07/31 21:24:46;;;;;;;14.85;9.77;;;20.00;91.30;;;;;;5075052;28;20017;-45
2022/07/31 21:27:14;;;;;;;15.40;9.40;;;20.00;91.40;;;;;;5075410;28;20024;-46
2022/07/31 21:29:40;;;;;;;19.00;9.55;;;20.00;91.50;;;;;;5075210;28;20025;-45
2022/07/31 21:32:07;;;;;;;20.88;9.13;;;20.00;91.50;;;;;;5074917;28;20024;-46
2022/07/31 21:34:33;;;;;;;15.38;8.85;;;19.90;91.50;;;;;;5073671;28;20405;-46
2022/07/31 21:37:00;;;;;;;13.45;8.98;;;20.00;91.70;;;;;;5075213;28;20048;-47
2022/07/31 21:39:27;;;;;;;21.90;9.48;;;19.90;91.70;;;;;;5074987;28;20495;-46
2022/07/31 21:41:53;;;;;;;20.02;9.93;;;19.80;91.70;;;;;;5056887;28;20116;-48
2022/07/31 21:44:19;;;;;;;15.05;10.15;;;19.80;91.90;;;;;;5073896;28;20066;-47
2022/07/31 21:46:45;;;;;;;16.83;10.00;;;19.80;91.80;;;;;;5074900;28;20377;-47
2022/07/31 21:49:12;;;;;;;14.30;10.48;;;19.70;92.00;;;;;;5075053;28;20020;-45
2022/07/31 21:51:38;;;;;;;16.73;10.20;;;19.70;92.00;;;;;;5073605;28;20059;-46
2022/07/31 21:54:04;;;;;;;17.02;10.98;;;19.80;92.00;;;;;;5075552;28;20036;-46
2022/07/31 21:56:30;;;;;;;15.63;10.25;;;19.80;92.00;;;;;;5074714;28;20169;-47
2022/07/31 21:58:56;;;;;;;16.45;10.77;;;19.80;92.00;;;;;;5075111;28;20031;-48
2022/07/31 22:01:22;;;;;;;14.82;9.90;;;19.80;91.90;;;;;;5073553;28;20028;-47
2022/07/31 22:03:48;;;;;;;19.42;10.55;;;19.80;91.80;;;;;;5072266;28;20021;-46
2022/07/31 22:08:58;;;;;;;21.33;12.73;;;19.80;91.70;;;;;;5075159;28;20036;-46
2022/07/31 22:11:23;;;;;;;14.68;9.75;;;19.80;91.40;;;;;;5074870;28;20024;-46
2022/07/31 22:13:49;;;;;;;16.23;9.57;;;19.80;91.50;;;;;;5074576;28;20044;-48
2022/07/31 22:16:15;;;;;;;14.60;9.98;;;19.90;91.40;;;;;;5074769;28;20033;-46
2022/07/31 22:18:40;;;;;;;15.57;8.65;;;19.90;91.40;;;;;;5074212;28;20033;-47
2022/07/31 22:21:07;;;;;;;15.73;9.20;;;19.90;91.20;;;;;;5074304;28;20039;-47
2022/07/31 22:23:34;;;;;;;17.75;10.15;;;19.80;91.40;;;;;;5074349;28;20031;-47
2022/07/31 22:26:00;;;;;;;15.90;9.80;;;19.90;91.40;;;;;;5072892;28;20025;-47
2022/07/31 22:28:26;;;;;;;20.10;9.57;;;19.80;91.30;;;;;;5074563;28;20031;-47
2022/07/31 22:30:53;;;;;;;15.80;9.80;;;19.90;91.40;;;;;;5074131;28;20044;-47
2022/07/31 22:33:20;;;;;;;15.40;10.90;;;19.90;91.30;;;;;;5074735;28;20029;-47
2022/07/31 22:35:47;;;;;;;18.90;10.07;;;19.90;91.20;;;;;;5073820;28;20491;-47
2022/07/31 22:38:15;;;;;;;15.30;9.70;;;19.90;91.40;;;;;;5073851;28;20060;-47
2022/07/31 22:40:40;;;;;;;17.08;11.07;;;19.90;91.20;;;;;;5073521;28;20052;-46
2022/07/31 22:43:06;;;;;;;22.55;10.02;;;19.80;91.10;;;;;;5073957;28;20118;-46
2022/07/31 22:45:32;;;;;;;16.90;11.60;;;19.90;91.30;;;;;;5073728;28;20381;-46
2022/07/31 22:47:58;;;;;;;19.42;11.30;;;19.80;91.20;;;;;;5073894;28;20081;-55
2022/07/31 22:50:24;;;;;;;19.15;11.40;;;19.90;91.30;;;;;;5074336;28;20074;-47
2022/07/31 22:52:49;;;;;;;23.92;11.43;;;19.80;91.20;;;;;;5074190;28;20028;-46
2022/07/31 22:55:15;;;;;;;25.88;13.35;;;19.90;91.30;;;;;;5074011;28;20028;-47
2022/07/31 22:57:42;;;;;;;20.05;11.23;;;19.80;91.30;;;;;;5073789;28;20048;-46
2022/07/31 23:00:11;;;;;;;23.27;12.38;;;19.80;91.50;;;;;;5073308;28;20024;-45
2022/07/31 23:02:37;;;;;;;15.65;10.10;;;19.80;91.40;;;;;;5073638;28;20035;-45
2022/07/31 23:05:05;;;;;;;18.90;11.50;;;19.80;91.60;;;;;;5073418;28;20045;-46
2022/07/31 23:07:31;;;;;;;14.40;10.90;;;19.80;91.60;;;;;;5073567;28;20021;-47
2022/07/31 23:09:57;;;;;;;24.83;14.10;;;19.80;91.70;;;;;;5072588;28;20021;-46
2022/07/31 23:12:22;;;;;;;20.85;12.85;;;19.70;92.00;;;;;;5074323;28;20483;-46
2022/07/31 23:14:48;;;;;;;27.00;14.02;;;19.60;92.20;;;;;;5073838;28;20031;-46
2022/07/31 23:17:14;;;;;;;25.27;15.52;;;19.60;92.40;;;;;;5073798;28;20465;-46
2022/07/31 23:19:39;;;;;;;20.90;14.45;;;19.50;92.40;;;;;;5072522;28;20025;-46
2022/07/31 23:22:05;;;;;;;20.52;13.65;;;19.50;92.70;;;;;;5072135;28;20027;-46
2022/07/31 23:24:31;;;;;;;28.17;17.67;;;19.50;92.70;;;;;;5073691;28;20024;-46
2022/07/31 23:27:00;;;;;;;21.67;13.02;;;19.50;92.90;;;;;;5072403;28;20025;-46
2022/07/31 23:29:25;;;;;;;28.48;16.33;;;19.40;92.90;;;;;;5074480;28;20051;-46
2022/07/31 23:31:51;;;;;;;21.42;14.00;;;19.40;92.90;;;;;;5073518;28;20056;-47
2022/07/31 23:34:16;;;;;;;28.95;16.45;;;19.40;92.90;;;;;;5073027;28;20459;-46
2022/07/31 23:36:43;;;;;;;27.33;16.65;;;19.40;92.80;;;;;;5072942;28;20059;-47
2022/07/31 23:39:10;;;;;;;26.42;16.58;;;19.40;92.70;;;;;;5073169;28;20032;-46
2022/07/31 23:44:20;;;;;;;23.88;17.13;;;19.40;92.70;;;;;;5073281;28;20035;-45
2022/07/31 23:46:46;;;;;;;24.75;16.10;;;19.50;92.80;;;;;;5073078;28;20020;-45
2022/07/31 23:49:11;;;;;;;31.80;18.00;;;19.40;92.80;;;;;;5072891;28;20062;-46
2022/07/31 23:51:38;;;;;;;25.92;18.42;;;19.50;92.90;;;;;;5071526;28;20024;-47
2022/07/31 23:54:04;;;;;;;25.70;17.92;;;19.50;92.70;;;;;;5072843;28;20033;-46
2022/07/31 23:56:31;;;;;;;28.67;18.77;;;19.50;92.70;;;;;;5073109;28;20028;-46
2022/07/31 23:58:57;;;;;;;31.00;21.05;;;19.50;92.70;;;;;;5055696;28;20078;-46
